NKS606 KDFW-KMZJ
Flight info
| Callsign | NKS606 |
|---|---|
| Flight time | 2h 3m |
| Altitude | 28000 |
| Route | WSTEX2 CIKAN BGS SUMMY MOLLY SSO HOTTT SECBO |
| Aircraft | A320/M-SDE3FGHIRWY/LB1 |
Departure
| Time | 2026-05-06 21:24 |
|---|---|
| Airport | Dallas Fort Worth International Airport (KDFW) |
Arrival
| Time | 2026-05-06 23:27 |
|---|---|
| Airport | Pinal Airpark (KMZJ) |
| Time | Latitude | Longitude | Altitude | Speed | Heading |
|---|---|---|---|---|---|
| 2026-05-06 21:00 | 32.89156 | -97.04687 | 595 ft | 0 kts | 180° |
| 2026-05-06 21:16 | 32.89153 | -97.04687 | 595 ft | 0 kts | 180° |
| 2026-05-06 21:21 | 32.89107 | -97.04698 | 594 ft | 14 kts | 204° |
| 2026-05-06 21:21 | 32.89006 | -97.04767 | 591 ft | 19 kts | 200° |
| 2026-05-06 21:21 | 32.88862 | -97.04769 | 591 ft | 22 kts | 178° |
| 2026-05-06 21:22 | 32.88694 | -97.04769 | 590 ft | 27 kts | 180° |
| 2026-05-06 21:22 | 32.88527 | -97.04770 | 587 ft | 18 kts | 186° |
| 2026-05-06 21:22 | 32.88400 | -97.04808 | 589 ft | 20 kts | 179° |
| 2026-05-06 21:22 | 32.88246 | -97.04807 | 588 ft | 25 kts | 180° |
| 2026-05-06 21:23 | 32.88069 | -97.04806 | 587 ft | 24 kts | 181° |
| 2026-05-06 21:23 | 32.87940 | -97.04822 | 587 ft | 18 kts | 212° |
| 2026-05-06 21:23 | 32.87917 | -97.04970 | 586 ft | 21 kts | 270° |
| 2026-05-06 21:23 | 32.87973 | -97.05089 | 589 ft | 18 kts | 352° |
| 2026-05-06 21:24 | 32.88164 | -97.05090 | 591 ft | 62 kts | 0° |
| 2026-05-06 21:24 | 32.88936 | -97.05084 | 589 ft | 154 kts | 0° |
| 2026-05-06 21:24 | 32.90131 | -97.05078 | 1267 ft | 184 kts | 1° |
| 2026-05-06 21:24 | 32.91493 | -97.05087 | 2068 ft | 207 kts | 359° |
| 2026-05-06 21:25 | 32.92997 | -97.05146 | 2775 ft | 229 kts | 359° |
| 2026-05-06 21:25 | 32.94615 | -97.05324 | 3718 ft | 241 kts | 346° |
| 2026-05-06 21:25 | 32.96228 | -97.05944 | 4821 ft | 247 kts | 338° |
| 2026-05-06 21:25 | 32.97869 | -97.06649 | 5886 ft | 254 kts | 336° |
| 2026-05-06 21:26 | 32.99442 | -97.07613 | 6924 ft | 255 kts | 317° |
| 2026-05-06 21:26 | 33.00246 | -97.08617 | 7566 ft | 253 kts | 301° |
| 2026-05-06 21:26 | 33.01014 | -97.11241 | 8900 ft | 254 kts | 270° |
| 2026-05-06 21:26 | 33.00964 | -97.12636 | 9598 ft | 255 kts | 263° |
| 2026-05-06 21:27 | 33.00825 | -97.14759 | 10609 ft | 258 kts | 263° |
| 2026-05-06 21:27 | 33.00691 | -97.16896 | 11649 ft | 259 kts | 262° |
| 2026-05-06 21:27 | 33.00440 | -97.19861 | 12352 ft | 287 kts | 261° |
| 2026-05-06 21:27 | 33.00168 | -97.22317 | 12676 ft | 310 kts | 257° |
| 2026-05-06 21:28 | 32.99723 | -97.23997 | 12988 ft | 320 kts | 245° |
| 2026-05-06 21:28 | 32.98538 | -97.26220 | 13765 ft | 327 kts | 233° |
| 2026-05-06 21:28 | 32.97139 | -97.28358 | 14619 ft | 327 kts | 233° |
| 2026-05-06 21:28 | 32.95746 | -97.30506 | 15511 ft | 327 kts | 234° |
| 2026-05-06 21:29 | 32.94362 | -97.32649 | 16419 ft | 326 kts | 234° |
| 2026-05-06 21:29 | 32.92981 | -97.34786 | 17320 ft | 326 kts | 234° |
| 2026-05-06 21:29 | 32.91597 | -97.36924 | 18258 ft | 326 kts | 234° |
| 2026-05-06 21:29 | 32.90209 | -97.39063 | 19046 ft | 326 kts | 234° |
| 2026-05-06 21:30 | 32.88817 | -97.41203 | 19795 ft | 329 kts | 234° |
| 2026-05-06 21:30 | 32.87428 | -97.43342 | 20522 ft | 332 kts | 234° |
| 2026-05-06 21:30 | 32.86008 | -97.45528 | 21222 ft | 336 kts | 234° |
| 2026-05-06 21:30 | 32.84572 | -97.47737 | 21898 ft | 339 kts | 235° |
| 2026-05-06 21:31 | 32.83121 | -97.49967 | 22532 ft | 343 kts | 235° |
| 2026-05-06 21:31 | 32.81655 | -97.52219 | 23094 ft | 346 kts | 235° |
| 2026-05-06 21:31 | 32.80172 | -97.54492 | 23666 ft | 350 kts | 235° |
| 2026-05-06 21:31 | 32.78674 | -97.56784 | 24169 ft | 352 kts | 235° |
| 2026-05-06 21:32 | 32.77166 | -97.59088 | 24692 ft | 354 kts | 235° |
| 2026-05-06 21:32 | 32.74124 | -97.63733 | 25706 ft | 358 kts | 234° |
| 2026-05-06 21:32 | 32.72613 | -97.66042 | 26222 ft | 360 kts | 234° |
| 2026-05-06 21:33 | 32.71076 | -97.68394 | 26724 ft | 362 kts | 234° |
| 2026-05-06 21:33 | 32.69546 | -97.70773 | 27220 ft | 363 kts | 237° |
| 2026-05-06 21:33 | 32.68341 | -97.73400 | 27696 ft | 364 kts | 247° |
| 2026-05-06 21:33 | 32.67609 | -97.76286 | 27955 ft | 367 kts | 256° |
| 2026-05-06 21:34 | 32.67096 | -97.82365 | 28001 ft | 371 kts | 261° |
| 2026-05-06 21:34 | 32.66633 | -97.88469 | 28001 ft | 372 kts | 261° |
| 2026-05-06 21:35 | 32.66168 | -97.94532 | 28007 ft | 372 kts | 261° |
| 2026-05-06 21:35 | 32.65691 | -98.00647 | 28006 ft | 374 kts | 260° |
| 2026-05-06 21:36 | 32.65201 | -98.06800 | 28002 ft | 379 kts | 260° |
| 2026-05-06 21:36 | 32.64685 | -98.13084 | 28005 ft | 384 kts | 260° |
| 2026-05-06 21:37 | 32.64178 | -98.19367 | 28002 ft | 385 kts | 260° |
| 2026-05-06 21:37 | 32.63663 | -98.25687 | 28001 ft | 385 kts | 260° |
| 2026-05-06 21:38 | 32.63158 | -98.32020 | 27998 ft | 386 kts | 260° |
| 2026-05-06 21:38 | 32.62648 | -98.38347 | 28011 ft | 385 kts | 260° |
| 2026-05-06 21:39 | 32.62129 | -98.44652 | 27997 ft | 384 kts | 259° |
| 2026-05-06 21:39 | 32.61871 | -98.47756 | 27994 ft | 383 kts | 259° |
| 2026-05-06 21:39 | 32.61612 | -98.50902 | 27991 ft | 383 kts | 259° |
| 2026-05-06 21:40 | 32.61354 | -98.54047 | 27991 ft | 383 kts | 259° |
| 2026-05-06 21:40 | 32.61093 | -98.57193 | 27991 ft | 383 kts | 259° |
| 2026-05-06 21:40 | 32.60831 | -98.60337 | 27990 ft | 383 kts | 259° |
| 2026-05-06 21:40 | 32.60567 | -98.63480 | 27991 ft | 383 kts | 259° |
| 2026-05-06 21:41 | 32.60302 | -98.66622 | 27992 ft | 383 kts | 259° |
| 2026-05-06 21:41 | 32.60038 | -98.69765 | 27993 ft | 383 kts | 259° |
| 2026-05-06 21:41 | 32.59510 | -98.76010 | 28010 ft | 383 kts | 259° |
| 2026-05-06 21:42 | 32.58976 | -98.82288 | 28013 ft | 383 kts | 259° |
| 2026-05-06 21:42 | 32.58440 | -98.88557 | 28013 ft | 382 kts | 259° |
| 2026-05-06 21:43 | 32.57899 | -98.94819 | 28010 ft | 382 kts | 259° |
| 2026-05-06 21:43 | 32.57360 | -99.01028 | 28002 ft | 381 kts | 259° |
| 2026-05-06 21:44 | 32.57088 | -99.04153 | 27998 ft | 381 kts | 259° |
| 2026-05-06 21:44 | 32.56815 | -99.07278 | 27981 ft | 381 kts | 259° |
| 2026-05-06 21:44 | 32.56542 | -99.10402 | 28000 ft | 381 kts | 259° |
| 2026-05-06 21:44 | 32.56270 | -99.13521 | 28002 ft | 380 kts | 259° |
| 2026-05-06 21:45 | 32.55995 | -99.16633 | 28000 ft | 379 kts | 259° |
| 2026-05-06 21:45 | 32.55718 | -99.19741 | 27999 ft | 379 kts | 259° |
| 2026-05-06 21:45 | 32.55443 | -99.22845 | 27998 ft | 379 kts | 259° |
| 2026-05-06 21:45 | 32.55170 | -99.25910 | 27995 ft | 378 kts | 259° |
| 2026-05-06 21:46 | 32.54893 | -99.29010 | 27992 ft | 378 kts | 259° |
| 2026-05-06 21:46 | 32.54614 | -99.32102 | 27989 ft | 378 kts | 259° |
| 2026-05-06 21:46 | 32.54353 | -99.35208 | 27985 ft | 378 kts | 260° |
| 2026-05-06 21:46 | 32.54147 | -99.38314 | 27992 ft | 379 kts | 261° |
| 2026-05-06 21:47 | 32.53976 | -99.41431 | 27990 ft | 379 kts | 261° |
| 2026-05-06 21:47 | 32.53817 | -99.44549 | 27991 ft | 379 kts | 262° |
| 2026-05-06 21:47 | 32.53657 | -99.47627 | 27991 ft | 379 kts | 261° |
| 2026-05-06 21:47 | 32.53488 | -99.50734 | 27994 ft | 379 kts | 261° |
| 2026-05-06 21:48 | 32.53304 | -99.53851 | 27999 ft | 378 kts | 261° |
| 2026-05-06 21:48 | 32.53113 | -99.56955 | 27999 ft | 378 kts | 261° |
| 2026-05-06 21:48 | 32.52726 | -99.63180 | 28003 ft | 378 kts | 261° |
| 2026-05-06 21:49 | 32.52337 | -99.69395 | 28004 ft | 378 kts | 261° |
| 2026-05-06 21:49 | 32.51953 | -99.75607 | 28000 ft | 378 kts | 261° |
| 2026-05-06 21:50 | 32.51761 | -99.78712 | 27984 ft | 378 kts | 261° |
| 2026-05-06 21:50 | 32.51570 | -99.81773 | 27986 ft | 378 kts | 261° |
| 2026-05-06 21:50 | 32.51176 | -99.87981 | 28000 ft | 378 kts | 260° |
| 2026-05-06 21:51 | 32.50976 | -99.91083 | 27997 ft | 378 kts | 260° |
| 2026-05-06 21:51 | 32.50779 | -99.94184 | 27994 ft | 378 kts | 260° |
| 2026-05-06 21:51 | 32.50581 | -99.97285 | 27990 ft | 378 kts | 260° |
| 2026-05-06 21:51 | 32.50383 | -100.00386 | 27985 ft | 378 kts | 260° |
| 2026-05-06 21:52 | 32.50187 | -100.03450 | 27982 ft | 378 kts | 260° |
| 2026-05-06 21:52 | 32.49991 | -100.06553 | 27979 ft | 378 kts | 260° |
| 2026-05-06 21:52 | 32.49792 | -100.09656 | 27976 ft | 378 kts | 260° |
| 2026-05-06 21:52 | 32.49590 | -100.12752 | 27973 ft | 378 kts | 260° |
| 2026-05-06 21:53 | 32.49385 | -100.15858 | 27965 ft | 377 kts | 260° |
| 2026-05-06 21:53 | 32.49180 | -100.18957 | 27960 ft | 377 kts | 260° |
| 2026-05-06 21:53 | 32.48976 | -100.22056 | 27973 ft | 377 kts | 260° |
| 2026-05-06 21:53 | 32.48771 | -100.25154 | 27965 ft | 377 kts | 260° |
| 2026-05-06 21:54 | 32.48563 | -100.28249 | 27952 ft | 377 kts | 260° |
| 2026-05-06 21:54 | 32.48359 | -100.31301 | 28041 ft | 377 kts | 260° |
| 2026-05-06 21:54 | 32.47902 | -100.37480 | 28054 ft | 376 kts | 259° |
| 2026-05-06 21:55 | 32.47392 | -100.43647 | 28048 ft | 376 kts | 259° |
| 2026-05-06 21:55 | 32.46882 | -100.49813 | 28046 ft | 376 kts | 259° |
| 2026-05-06 21:56 | 32.46382 | -100.55983 | 28046 ft | 377 kts | 259° |
| 2026-05-06 21:56 | 32.45883 | -100.62119 | 28040 ft | 377 kts | 260° |
| 2026-05-06 21:57 | 32.45383 | -100.68293 | 28015 ft | 377 kts | 260° |
| 2026-05-06 21:57 | 32.44873 | -100.74470 | 27982 ft | 377 kts | 260° |
| 2026-05-06 21:58 | 32.44618 | -100.77559 | 27974 ft | 377 kts | 260° |
| 2026-05-06 21:58 | 32.44363 | -100.80649 | 27954 ft | 377 kts | 260° |
| 2026-05-06 21:58 | 32.44113 | -100.83694 | 27957 ft | 377 kts | 260° |
| 2026-05-06 21:58 | 32.43857 | -100.86783 | 27959 ft | 377 kts | 259° |
| 2026-05-06 21:59 | 32.43597 | -100.89872 | 27957 ft | 377 kts | 259° |
| 2026-05-06 21:59 | 32.43338 | -100.92961 | 27954 ft | 377 kts | 259° |
| 2026-05-06 21:59 | 32.43077 | -100.96051 | 27955 ft | 377 kts | 259° |
| 2026-05-06 21:59 | 32.42815 | -100.99140 | 27955 ft | 377 kts | 259° |
| 2026-05-06 22:00 | 32.42551 | -101.02230 | 27951 ft | 378 kts | 259° |
| 2026-05-06 22:00 | 32.42288 | -101.05322 | 27947 ft | 377 kts | 259° |
| 2026-05-06 22:00 | 32.42028 | -101.08413 | 27944 ft | 377 kts | 259° |
| 2026-05-06 22:00 | 32.41770 | -101.11465 | 27941 ft | 377 kts | 259° |
| 2026-05-06 22:01 | 32.41507 | -101.14549 | 27938 ft | 377 kts | 259° |
| 2026-05-06 22:01 | 32.41240 | -101.17639 | 27933 ft | 377 kts | 259° |
| 2026-05-06 22:01 | 32.40973 | -101.20727 | 27930 ft | 377 kts | 259° |
| 2026-05-06 22:01 | 32.40705 | -101.23816 | 27926 ft | 377 kts | 259° |
| 2026-05-06 22:02 | 32.40437 | -101.26904 | 27930 ft | 377 kts | 259° |
| 2026-05-06 22:02 | 32.40171 | -101.29998 | 27933 ft | 377 kts | 260° |
| 2026-05-06 22:02 | 32.39904 | -101.33087 | 27925 ft | 378 kts | 259° |
| 2026-05-06 22:02 | 32.39634 | -101.36180 | 27922 ft | 378 kts | 259° |
| 2026-05-06 22:03 | 32.39363 | -101.39231 | 27916 ft | 378 kts | 259° |
| 2026-05-06 22:03 | 32.39087 | -101.42328 | 27915 ft | 379 kts | 259° |
| 2026-05-06 22:03 | 32.38813 | -101.45427 | 27917 ft | 379 kts | 259° |
| 2026-05-06 22:03 | 32.38539 | -101.48529 | 27916 ft | 379 kts | 259° |
| 2026-05-06 22:04 | 32.38280 | -101.51636 | 27919 ft | 380 kts | 260° |
| 2026-05-06 22:04 | 32.38040 | -101.54747 | 27918 ft | 380 kts | 260° |
| 2026-05-06 22:04 | 32.37806 | -101.57860 | 27920 ft | 380 kts | 260° |
| 2026-05-06 22:04 | 32.37574 | -101.60974 | 27917 ft | 380 kts | 260° |
| 2026-05-06 22:05 | 32.37338 | -101.64087 | 27916 ft | 380 kts | 260° |
| 2026-05-06 22:05 | 32.37098 | -101.67199 | 27917 ft | 380 kts | 260° |
| 2026-05-06 22:05 | 32.36856 | -101.70275 | 27913 ft | 380 kts | 260° |
| 2026-05-06 22:05 | 32.36609 | -101.73389 | 27912 ft | 380 kts | 260° |
| 2026-05-06 22:06 | 32.36363 | -101.76506 | 27912 ft | 381 kts | 260° |
| 2026-05-06 22:06 | 32.36118 | -101.79623 | 27911 ft | 381 kts | 260° |
| 2026-05-06 22:06 | 32.35873 | -101.82739 | 27903 ft | 381 kts | 260° |
| 2026-05-06 22:06 | 32.35625 | -101.85856 | 27905 ft | 381 kts | 260° |
| 2026-05-06 22:07 | 32.35375 | -101.88972 | 27913 ft | 380 kts | 260° |
| 2026-05-06 22:07 | 32.35122 | -101.92085 | 27897 ft | 381 kts | 260° |
| 2026-05-06 22:07 | 32.34872 | -101.95157 | 27912 ft | 381 kts | 260° |
| 2026-05-06 22:07 | 32.34619 | -101.98274 | 27912 ft | 381 kts | 260° |
| 2026-05-06 22:08 | 32.34365 | -102.01392 | 27925 ft | 381 kts | 260° |
| 2026-05-06 22:08 | 32.34112 | -102.04510 | 27909 ft | 381 kts | 260° |
| 2026-05-06 22:08 | 32.33860 | -102.07629 | 27913 ft | 381 kts | 260° |
| 2026-05-06 22:08 | 32.33606 | -102.10751 | 27916 ft | 382 kts | 260° |
| 2026-05-06 22:09 | 32.33347 | -102.13873 | 27917 ft | 382 kts | 260° |
| 2026-05-06 22:09 | 32.33091 | -102.16961 | 27917 ft | 382 kts | 260° |
| 2026-05-06 22:09 | 32.32832 | -102.20088 | 27912 ft | 382 kts | 260° |
| 2026-05-06 22:09 | 32.32574 | -102.23215 | 27914 ft | 382 kts | 260° |
| 2026-05-06 22:10 | 32.32317 | -102.26341 | 27916 ft | 382 kts | 260° |
| 2026-05-06 22:10 | 32.32062 | -102.29469 | 27917 ft | 382 kts | 260° |
| 2026-05-06 22:10 | 32.31806 | -102.32594 | 27917 ft | 382 kts | 260° |
| 2026-05-06 22:10 | 32.31547 | -102.35719 | 27914 ft | 382 kts | 260° |
| 2026-05-06 22:11 | 32.31282 | -102.38839 | 27911 ft | 381 kts | 260° |
| 2026-05-06 22:11 | 32.31014 | -102.41957 | 27944 ft | 381 kts | 260° |
| 2026-05-06 22:11 | 32.30750 | -102.45071 | 27943 ft | 381 kts | 260° |
| 2026-05-06 22:11 | 32.30487 | -102.48184 | 27936 ft | 380 kts | 260° |
| 2026-05-06 22:12 | 32.30228 | -102.51249 | 27932 ft | 380 kts | 260° |
| 2026-05-06 22:12 | 32.29963 | -102.54353 | 27929 ft | 380 kts | 260° |
| 2026-05-06 22:12 | 32.29696 | -102.57455 | 27928 ft | 379 kts | 260° |
| 2026-05-06 22:12 | 32.29426 | -102.60557 | 27925 ft | 380 kts | 260° |
| 2026-05-06 22:13 | 32.29156 | -102.63660 | 27897 ft | 380 kts | 260° |
| 2026-05-06 22:13 | 32.28888 | -102.66764 | 27898 ft | 380 kts | 260° |
| 2026-05-06 22:13 | 32.28621 | -102.69867 | 27906 ft | 380 kts | 260° |
| 2026-05-06 22:13 | 32.28355 | -102.72969 | 27902 ft | 380 kts | 260° |
| 2026-05-06 22:14 | 32.28088 | -102.76071 | 27903 ft | 379 kts | 260° |
| 2026-05-06 22:14 | 32.27825 | -102.79123 | 27910 ft | 377 kts | 260° |
| 2026-05-06 22:14 | 32.27560 | -102.82193 | 27892 ft | 374 kts | 260° |
| 2026-05-06 22:14 | 32.27293 | -102.85250 | 27890 ft | 374 kts | 260° |
| 2026-05-06 22:15 | 32.27023 | -102.88301 | 27886 ft | 373 kts | 260° |
| 2026-05-06 22:15 | 32.26750 | -102.91348 | 27883 ft | 373 kts | 260° |
| 2026-05-06 22:15 | 32.26478 | -102.94393 | 27866 ft | 373 kts | 260° |
| 2026-05-06 22:15 | 32.26209 | -102.97438 | 27870 ft | 373 kts | 260° |
| 2026-05-06 22:16 | 32.25941 | -103.00488 | 27883 ft | 373 kts | 260° |
| 2026-05-06 22:16 | 32.25670 | -103.03534 | 27877 ft | 373 kts | 260° |
| 2026-05-06 22:16 | 32.25403 | -103.06536 | 27862 ft | 373 kts | 260° |
| 2026-05-06 22:16 | 32.25132 | -103.09581 | 27864 ft | 373 kts | 260° |
| 2026-05-06 22:17 | 32.24860 | -103.12625 | 27870 ft | 373 kts | 260° |
| 2026-05-06 22:17 | 32.24581 | -103.15668 | 27833 ft | 373 kts | 259° |
| 2026-05-06 22:17 | 32.24300 | -103.18716 | 27829 ft | 374 kts | 259° |
| 2026-05-06 22:17 | 32.24019 | -103.21770 | 27824 ft | 374 kts | 259° |
| 2026-05-06 22:18 | 32.23740 | -103.24827 | 27824 ft | 375 kts | 259° |
| 2026-05-06 22:18 | 32.23462 | -103.27888 | 27824 ft | 375 kts | 259° |
| 2026-05-06 22:18 | 32.23187 | -103.30909 | 27824 ft | 375 kts | 259° |
| 2026-05-06 22:18 | 32.22909 | -103.33975 | 27831 ft | 376 kts | 259° |
| 2026-05-06 22:19 | 32.22632 | -103.37042 | 27839 ft | 376 kts | 259° |
| 2026-05-06 22:19 | 32.22350 | -103.40117 | 27834 ft | 376 kts | 259° |
| 2026-05-06 22:19 | 32.22067 | -103.43181 | 27834 ft | 376 kts | 259° |
| 2026-05-06 22:19 | 32.21782 | -103.46250 | 27834 ft | 376 kts | 259° |
| 2026-05-06 22:20 | 32.21491 | -103.49324 | 27833 ft | 376 kts | 259° |
| 2026-05-06 22:20 | 32.21199 | -103.52393 | 27820 ft | 376 kts | 259° |
| 2026-05-06 22:20 | 32.20915 | -103.55421 | 27820 ft | 377 kts | 259° |
| 2026-05-06 22:20 | 32.20629 | -103.58494 | 27817 ft | 377 kts | 259° |
| 2026-05-06 22:21 | 32.20343 | -103.61568 | 27820 ft | 377 kts | 259° |
| 2026-05-06 22:21 | 32.20058 | -103.64643 | 27811 ft | 377 kts | 259° |
| 2026-05-06 22:21 | 32.19770 | -103.67721 | 27813 ft | 377 kts | 259° |
| 2026-05-06 22:21 | 32.19480 | -103.70800 | 27822 ft | 377 kts | 259° |
| 2026-05-06 22:22 | 32.19186 | -103.73877 | 27839 ft | 377 kts | 259° |
| 2026-05-06 22:22 | 32.18888 | -103.76955 | 27836 ft | 377 kts | 259° |
| 2026-05-06 22:22 | 32.18593 | -103.79996 | 27824 ft | 378 kts | 259° |
| 2026-05-06 22:22 | 32.18296 | -103.83070 | 27823 ft | 378 kts | 259° |
| 2026-05-06 22:23 | 32.17998 | -103.86148 | 27830 ft | 377 kts | 259° |
| 2026-05-06 22:23 | 32.17705 | -103.89233 | 27827 ft | 377 kts | 259° |
| 2026-05-06 22:23 | 32.17414 | -103.92310 | 27825 ft | 377 kts | 259° |
| 2026-05-06 22:23 | 32.17122 | -103.95387 | 27830 ft | 377 kts | 259° |
| 2026-05-06 22:24 | 32.16826 | -103.98461 | 27840 ft | 377 kts | 259° |
| 2026-05-06 22:24 | 32.16529 | -104.01536 | 27835 ft | 377 kts | 259° |
| 2026-05-06 22:24 | 32.16229 | -104.04610 | 27831 ft | 377 kts | 259° |
| 2026-05-06 22:24 | 32.15932 | -104.07639 | 27899 ft | 377 kts | 259° |
| 2026-05-06 22:25 | 32.15629 | -104.10709 | 27906 ft | 377 kts | 259° |
| 2026-05-06 22:25 | 32.15327 | -104.13778 | 27912 ft | 376 kts | 259° |
| 2026-05-06 22:25 | 32.15022 | -104.16845 | 27910 ft | 376 kts | 259° |
| 2026-05-06 22:25 | 32.14718 | -104.19913 | 27916 ft | 377 kts | 259° |
| 2026-05-06 22:26 | 32.14415 | -104.22982 | 27907 ft | 377 kts | 259° |
| 2026-05-06 22:26 | 32.14112 | -104.26055 | 27907 ft | 377 kts | 259° |
| 2026-05-06 22:26 | 32.13811 | -104.29131 | 27897 ft | 378 kts | 259° |
| 2026-05-06 22:26 | 32.13510 | -104.32212 | 27892 ft | 378 kts | 259° |
| 2026-05-06 22:27 | 32.13204 | -104.35293 | 27887 ft | 378 kts | 259° |
| 2026-05-06 22:27 | 32.12896 | -104.38338 | 27887 ft | 379 kts | 259° |
| 2026-05-06 22:27 | 32.12582 | -104.41422 | 27879 ft | 379 kts | 259° |
| 2026-05-06 22:27 | 32.12269 | -104.44500 | 27874 ft | 379 kts | 259° |
| 2026-05-06 22:28 | 32.11957 | -104.47593 | 27865 ft | 379 kts | 259° |
| 2026-05-06 22:28 | 32.11643 | -104.50677 | 27865 ft | 379 kts | 259° |
| 2026-05-06 22:28 | 32.11328 | -104.53760 | 27857 ft | 379 kts | 259° |
| 2026-05-06 22:28 | 32.11017 | -104.56844 | 27850 ft | 379 kts | 259° |
| 2026-05-06 22:29 | 32.10711 | -104.59882 | 27844 ft | 378 kts | 259° |
| 2026-05-06 22:29 | 32.10397 | -104.62959 | 27846 ft | 378 kts | 259° |
| 2026-05-06 22:29 | 32.10082 | -104.66038 | 27852 ft | 378 kts | 259° |
| 2026-05-06 22:29 | 32.09765 | -104.69119 | 27856 ft | 379 kts | 259° |
| 2026-05-06 22:30 | 32.09446 | -104.72201 | 27853 ft | 379 kts | 259° |
| 2026-05-06 22:30 | 32.09127 | -104.75286 | 27852 ft | 379 kts | 258° |
| 2026-05-06 22:30 | 32.08809 | -104.78371 | 27853 ft | 379 kts | 259° |
| 2026-05-06 22:30 | 32.08493 | -104.81456 | 27863 ft | 379 kts | 259° |
| 2026-05-06 22:31 | 32.08176 | -104.84545 | 27873 ft | 380 kts | 259° |
| 2026-05-06 22:31 | 32.07858 | -104.87588 | 27872 ft | 379 kts | 258° |
| 2026-05-06 22:31 | 32.07532 | -104.90676 | 27871 ft | 379 kts | 259° |
| 2026-05-06 22:31 | 32.07208 | -104.93772 | 27865 ft | 380 kts | 259° |
| 2026-05-06 22:32 | 32.06884 | -104.96862 | 27867 ft | 380 kts | 259° |
| 2026-05-06 22:32 | 32.06564 | -104.99949 | 27868 ft | 380 kts | 259° |
| 2026-05-06 22:32 | 32.06241 | -105.03039 | 27869 ft | 380 kts | 259° |
| 2026-05-06 22:32 | 32.05914 | -105.06125 | 27867 ft | 379 kts | 259° |
| 2026-05-06 22:33 | 32.05586 | -105.09208 | 27861 ft | 379 kts | 259° |
| 2026-05-06 22:33 | 32.05259 | -105.12289 | 27855 ft | 379 kts | 259° |
| 2026-05-06 22:33 | 32.04934 | -105.15331 | 27854 ft | 379 kts | 259° |
| 2026-05-06 22:33 | 32.04604 | -105.18410 | 27860 ft | 379 kts | 259° |
| 2026-05-06 22:34 | 32.04273 | -105.21491 | 27858 ft | 379 kts | 259° |
| 2026-05-06 22:34 | 32.03941 | -105.24570 | 27857 ft | 379 kts | 258° |
| 2026-05-06 22:34 | 32.03608 | -105.27649 | 27854 ft | 379 kts | 258° |
| 2026-05-06 22:34 | 32.03276 | -105.30726 | 27866 ft | 379 kts | 259° |
| 2026-05-06 22:35 | 32.02947 | -105.33810 | 27862 ft | 380 kts | 259° |
| 2026-05-06 22:35 | 32.02616 | -105.36896 | 27861 ft | 380 kts | 259° |
| 2026-05-06 22:35 | 32.02288 | -105.39939 | 27856 ft | 380 kts | 259° |
| 2026-05-06 22:35 | 32.01954 | -105.43024 | 27853 ft | 380 kts | 258° |
| 2026-05-06 22:36 | 32.01616 | -105.46108 | 27852 ft | 380 kts | 258° |
| 2026-05-06 22:36 | 32.01279 | -105.49191 | 27851 ft | 379 kts | 258° |
| 2026-05-06 22:36 | 32.00942 | -105.52273 | 27852 ft | 379 kts | 258° |
| 2026-05-06 22:36 | 32.00605 | -105.55356 | 27856 ft | 379 kts | 258° |
| 2026-05-06 22:37 | 32.00268 | -105.58439 | 27865 ft | 380 kts | 258° |
| 2026-05-06 22:37 | 31.99928 | -105.61521 | 27862 ft | 380 kts | 258° |
| 2026-05-06 22:37 | 31.99588 | -105.64604 | 27879 ft | 380 kts | 258° |
| 2026-05-06 22:37 | 31.99253 | -105.67651 | 27872 ft | 380 kts | 258° |
| 2026-05-06 22:38 | 31.98913 | -105.70737 | 27864 ft | 380 kts | 259° |
| 2026-05-06 22:38 | 31.98802 | -105.73864 | 27858 ft | 386 kts | 267° |
| 2026-05-06 22:38 | 31.99043 | -105.77025 | 27857 ft | 388 kts | 269° |
| 2026-05-06 22:38 | 31.99299 | -105.80189 | 27863 ft | 388 kts | 269° |
| 2026-05-06 22:39 | 31.99551 | -105.83357 | 27865 ft | 389 kts | 269° |
| 2026-05-06 22:39 | 31.99801 | -105.86528 | 27866 ft | 389 kts | 269° |
| 2026-05-06 22:39 | 32.00051 | -105.89703 | 27866 ft | 389 kts | 269° |
| 2026-05-06 22:39 | 32.00298 | -105.92834 | 27870 ft | 389 kts | 269° |
| 2026-05-06 22:40 | 32.00549 | -105.96017 | 27880 ft | 390 kts | 269° |
| 2026-05-06 22:40 | 32.00798 | -105.99190 | 27876 ft | 390 kts | 269° |
| 2026-05-06 22:40 | 32.01048 | -106.02372 | 27884 ft | 390 kts | 269° |
| 2026-05-06 22:40 | 32.01298 | -106.05563 | 27897 ft | 391 kts | 269° |
| 2026-05-06 22:41 | 32.01795 | -106.11942 | 27922 ft | 391 kts | 269° |
| 2026-05-06 22:41 | 32.02042 | -106.15135 | 27930 ft | 391 kts | 269° |
| 2026-05-06 22:41 | 32.02285 | -106.18282 | 27939 ft | 391 kts | 269° |
| 2026-05-06 22:42 | 32.02529 | -106.21474 | 27940 ft | 391 kts | 269° |
| 2026-05-06 22:42 | 32.02771 | -106.24666 | 27946 ft | 391 kts | 269° |
| 2026-05-06 22:42 | 32.03013 | -106.27859 | 27952 ft | 391 kts | 269° |
| 2026-05-06 22:42 | 32.03256 | -106.31051 | 27957 ft | 391 kts | 269° |
| 2026-05-06 22:43 | 32.03501 | -106.34244 | 27959 ft | 391 kts | 269° |
| 2026-05-06 22:43 | 32.03746 | -106.37437 | 27957 ft | 391 kts | 269° |
| 2026-05-06 22:43 | 32.03989 | -106.40593 | 27954 ft | 392 kts | 269° |
| 2026-05-06 22:43 | 32.04230 | -106.43790 | 27947 ft | 392 kts | 269° |
| 2026-05-06 22:44 | 32.04467 | -106.46988 | 27941 ft | 392 kts | 269° |
| 2026-05-06 22:44 | 32.04702 | -106.50187 | 27932 ft | 392 kts | 269° |
| 2026-05-06 22:44 | 32.04938 | -106.53386 | 27946 ft | 392 kts | 269° |
| 2026-05-06 22:44 | 32.05177 | -106.56587 | 27964 ft | 392 kts | 269° |
| 2026-05-06 22:45 | 32.05416 | -106.59788 | 28016 ft | 392 kts | 269° |
| 2026-05-06 22:45 | 32.05885 | -106.66133 | 28015 ft | 391 kts | 269° |
| 2026-05-06 22:46 | 32.06343 | -106.72509 | 28010 ft | 390 kts | 269° |
| 2026-05-06 22:46 | 32.06590 | -106.75698 | 27999 ft | 391 kts | 269° |
| 2026-05-06 22:46 | 32.06873 | -106.78894 | 27988 ft | 391 kts | 270° |
| 2026-05-06 22:46 | 32.07171 | -106.82075 | 27975 ft | 391 kts | 270° |
| 2026-05-06 22:47 | 32.07476 | -106.85266 | 27967 ft | 391 kts | 270° |
| 2026-05-06 22:47 | 32.07775 | -106.88444 | 27983 ft | 391 kts | 270° |
| 2026-05-06 22:47 | 32.08066 | -106.91592 | 27984 ft | 391 kts | 270° |
| 2026-05-06 22:47 | 32.08357 | -106.94778 | 27986 ft | 391 kts | 270° |
| 2026-05-06 22:48 | 32.08645 | -106.97966 | 27969 ft | 391 kts | 270° |
| 2026-05-06 22:48 | 32.08928 | -107.01154 | 27970 ft | 391 kts | 270° |
| 2026-05-06 22:48 | 32.09206 | -107.04344 | 27972 ft | 391 kts | 270° |
| 2026-05-06 22:48 | 32.09486 | -107.07537 | 27956 ft | 392 kts | 269° |
| 2026-05-06 22:49 | 32.09768 | -107.10734 | 27938 ft | 392 kts | 270° |
| 2026-05-06 22:49 | 32.10051 | -107.13933 | 27932 ft | 392 kts | 269° |
| 2026-05-06 22:49 | 32.10334 | -107.17135 | 27916 ft | 393 kts | 270° |
| 2026-05-06 22:49 | 32.10612 | -107.20301 | 27908 ft | 393 kts | 269° |
| 2026-05-06 22:50 | 32.10889 | -107.23502 | 27895 ft | 393 kts | 269° |
| 2026-05-06 22:50 | 32.11168 | -107.26709 | 27882 ft | 393 kts | 269° |
| 2026-05-06 22:50 | 32.11447 | -107.29917 | 27871 ft | 393 kts | 269° |
| 2026-05-06 22:50 | 32.11725 | -107.33130 | 27872 ft | 393 kts | 269° |
| 2026-05-06 22:51 | 32.12001 | -107.36328 | 27884 ft | 393 kts | 269° |
| 2026-05-06 22:51 | 32.12277 | -107.39538 | 27906 ft | 392 kts | 269° |
| 2026-05-06 22:51 | 32.12552 | -107.42743 | 27925 ft | 393 kts | 269° |
| 2026-05-06 22:51 | 32.12828 | -107.45951 | 27949 ft | 393 kts | 269° |
| 2026-05-06 22:52 | 32.13098 | -107.49113 | 27975 ft | 393 kts | 269° |
| 2026-05-06 22:52 | 32.13371 | -107.52326 | 27987 ft | 394 kts | 269° |
| 2026-05-06 22:52 | 32.13643 | -107.55540 | 27991 ft | 394 kts | 269° |
| 2026-05-06 22:53 | 32.14186 | -107.61971 | 28014 ft | 394 kts | 269° |
| 2026-05-06 22:53 | 32.14725 | -107.68414 | 28035 ft | 395 kts | 269° |
| 2026-05-06 22:54 | 32.15256 | -107.74822 | 28070 ft | 394 kts | 269° |
| 2026-05-06 22:54 | 32.15792 | -107.81262 | 27899 ft | 394 kts | 269° |
| 2026-05-06 22:54 | 32.16059 | -107.84483 | 27888 ft | 394 kts | 269° |
| 2026-05-06 22:55 | 32.16325 | -107.87704 | 27892 ft | 394 kts | 269° |
| 2026-05-06 22:55 | 32.16590 | -107.90925 | 27889 ft | 394 kts | 269° |
| 2026-05-06 22:55 | 32.16855 | -107.94148 | 27888 ft | 395 kts | 269° |
| 2026-05-06 22:55 | 32.17117 | -107.97371 | 27892 ft | 395 kts | 269° |
| 2026-05-06 22:56 | 32.17375 | -108.00594 | 27892 ft | 394 kts | 269° |
| 2026-05-06 22:56 | 32.17631 | -108.03816 | 27896 ft | 394 kts | 269° |
| 2026-05-06 22:56 | 32.17884 | -108.06991 | 27900 ft | 394 kts | 269° |
| 2026-05-06 22:56 | 32.18144 | -108.10211 | 27898 ft | 394 kts | 269° |
| 2026-05-06 22:57 | 32.18404 | -108.13431 | 27901 ft | 394 kts | 269° |
| 2026-05-06 22:57 | 32.18662 | -108.16653 | 27906 ft | 394 kts | 269° |
| 2026-05-06 22:57 | 32.18918 | -108.19874 | 27907 ft | 394 kts | 269° |
| 2026-05-06 22:57 | 32.19173 | -108.23102 | 27908 ft | 394 kts | 269° |
| 2026-05-06 22:58 | 32.19425 | -108.26317 | 27923 ft | 394 kts | 269° |
| 2026-05-06 22:58 | 32.19676 | -108.29503 | 27921 ft | 395 kts | 269° |
| 2026-05-06 22:58 | 32.19931 | -108.32731 | 27931 ft | 395 kts | 269° |
| 2026-05-06 22:58 | 32.20190 | -108.35958 | 27943 ft | 395 kts | 269° |
| 2026-05-06 22:59 | 32.20445 | -108.39186 | 27955 ft | 395 kts | 269° |
| 2026-05-06 22:59 | 32.20694 | -108.42415 | 27972 ft | 395 kts | 269° |
| 2026-05-06 22:59 | 32.20941 | -108.45644 | 27992 ft | 395 kts | 269° |
| 2026-05-06 23:00 | 32.21438 | -108.52107 | 28011 ft | 395 kts | 269° |
| 2026-05-06 23:00 | 32.21933 | -108.58525 | 28029 ft | 395 kts | 269° |
| 2026-05-06 23:01 | 32.22424 | -108.64990 | 28043 ft | 395 kts | 269° |
| 2026-05-06 23:01 | 32.22908 | -108.71458 | 28046 ft | 395 kts | 269° |
| 2026-05-06 23:02 | 32.23398 | -108.77923 | 27910 ft | 395 kts | 269° |
| 2026-05-06 23:02 | 32.23638 | -108.81117 | 27906 ft | 396 kts | 269° |
| 2026-05-06 23:02 | 32.23879 | -108.84358 | 27903 ft | 397 kts | 269° |
| 2026-05-06 23:02 | 32.24118 | -108.87602 | 27921 ft | 397 kts | 269° |
| 2026-05-06 23:03 | 32.24355 | -108.90840 | 27918 ft | 396 kts | 269° |
| 2026-05-06 23:03 | 32.24594 | -108.94088 | 27914 ft | 397 kts | 269° |
| 2026-05-06 23:03 | 32.24834 | -108.97340 | 27911 ft | 397 kts | 269° |
| 2026-05-06 23:03 | 32.25072 | -109.00591 | 27911 ft | 398 kts | 269° |
| 2026-05-06 23:04 | 32.25310 | -109.03844 | 27912 ft | 397 kts | 269° |
| 2026-05-06 23:04 | 32.25546 | -109.07095 | 27908 ft | 397 kts | 269° |
| 2026-05-06 23:04 | 32.25778 | -109.10298 | 27910 ft | 397 kts | 269° |
| 2026-05-06 23:04 | 32.26011 | -109.13545 | 27925 ft | 397 kts | 269° |
| 2026-05-06 23:05 | 32.26244 | -109.16802 | 27929 ft | 397 kts | 269° |
| 2026-05-06 23:05 | 32.26475 | -109.20051 | 27920 ft | 398 kts | 269° |
| 2026-05-06 23:05 | 32.26707 | -109.23305 | 27915 ft | 398 kts | 269° |
| 2026-05-06 23:05 | 32.26939 | -109.26566 | 27923 ft | 398 kts | 269° |
| 2026-05-06 23:06 | 32.27167 | -109.29823 | 27929 ft | 398 kts | 269° |
| 2026-05-06 23:06 | 32.27385 | -109.33082 | 27921 ft | 398 kts | 268° |
| 2026-05-06 23:06 | 32.27593 | -109.36297 | 27913 ft | 398 kts | 268° |
| 2026-05-06 23:06 | 32.27801 | -109.39561 | 27909 ft | 399 kts | 268° |
| 2026-05-06 23:07 | 32.28007 | -109.42826 | 27912 ft | 399 kts | 268° |
| 2026-05-06 23:07 | 32.28211 | -109.46097 | 27928 ft | 399 kts | 268° |
| 2026-05-06 23:07 | 32.28416 | -109.49372 | 27916 ft | 400 kts | 268° |
| 2026-05-06 23:07 | 32.28625 | -109.52651 | 27913 ft | 401 kts | 268° |
| 2026-05-06 23:08 | 32.28834 | -109.55933 | 27909 ft | 400 kts | 268° |
| 2026-05-06 23:08 | 32.29045 | -109.59212 | 27909 ft | 400 kts | 268° |
| 2026-05-06 23:08 | 32.29251 | -109.62453 | 27912 ft | 400 kts | 268° |
| 2026-05-06 23:08 | 32.29458 | -109.65735 | 27922 ft | 401 kts | 268° |
| 2026-05-06 23:09 | 32.29666 | -109.69020 | 27944 ft | 401 kts | 268° |
| 2026-05-06 23:09 | 32.29872 | -109.72307 | 27935 ft | 401 kts | 268° |
| 2026-05-06 23:09 | 32.30076 | -109.75600 | 27932 ft | 402 kts | 268° |
| 2026-05-06 23:09 | 32.30279 | -109.78897 | 27942 ft | 402 kts | 268° |
| 2026-05-06 23:10 | 32.30481 | -109.82198 | 27964 ft | 403 kts | 268° |
| 2026-05-06 23:10 | 32.30682 | -109.85506 | 27957 ft | 404 kts | 268° |
| 2026-05-06 23:10 | 32.30883 | -109.88812 | 27950 ft | 404 kts | 268° |
| 2026-05-06 23:10 | 32.31083 | -109.92084 | 27943 ft | 404 kts | 268° |
| 2026-05-06 23:11 | 32.31285 | -109.95398 | 27839 ft | 405 kts | 268° |
| 2026-05-06 23:11 | 32.31484 | -109.98724 | 27575 ft | 406 kts | 268° |
| 2026-05-06 23:11 | 32.31683 | -110.02047 | 26682 ft | 404 kts | 269° |
| 2026-05-06 23:11 | 32.31880 | -110.05348 | 25638 ft | 402 kts | 270° |
| 2026-05-06 23:12 | 32.32078 | -110.08640 | 24625 ft | 402 kts | 271° |
| 2026-05-06 23:12 | 32.32274 | -110.11953 | 23643 ft | 407 kts | 272° |
| 2026-05-06 23:12 | 32.32471 | -110.15316 | 22493 ft | 411 kts | 272° |
| 2026-05-06 23:12 | 32.32668 | -110.18684 | 21358 ft | 410 kts | 272° |
| 2026-05-06 23:13 | 32.32861 | -110.21989 | 20296 ft | 408 kts | 272° |
| 2026-05-06 23:13 | 32.33055 | -110.25328 | 19259 ft | 405 kts | 272° |
| 2026-05-06 23:13 | 32.33246 | -110.28636 | 18257 ft | 403 kts | 272° |
| 2026-05-06 23:13 | 32.33436 | -110.31944 | 17155 ft | 403 kts | 273° |
| 2026-05-06 23:14 | 32.33625 | -110.35248 | 16064 ft | 403 kts | 273° |
| 2026-05-06 23:14 | 32.33814 | -110.38552 | 15017 ft | 403 kts | 273° |
| 2026-05-06 23:14 | 32.34000 | -110.41861 | 14002 ft | 404 kts | 273° |
| 2026-05-06 23:14 | 32.34187 | -110.45170 | 12918 ft | 403 kts | 274° |
| 2026-05-06 23:15 | 32.34371 | -110.48473 | 11971 ft | 400 kts | 274° |
| 2026-05-06 23:15 | 32.34547 | -110.51620 | 11751 ft | 377 kts | 274° |
| 2026-05-06 23:15 | 32.34717 | -110.54614 | 11628 ft | 354 kts | 274° |
| 2026-05-06 23:15 | 32.34875 | -110.57433 | 11495 ft | 334 kts | 274° |
| 2026-05-06 23:16 | 32.35021 | -110.60109 | 11386 ft | 318 kts | 274° |
| 2026-05-06 23:16 | 32.35157 | -110.62657 | 11222 ft | 306 kts | 274° |
| 2026-05-06 23:16 | 32.35289 | -110.65140 | 10872 ft | 301 kts | 274° |
| 2026-05-06 23:16 | 32.35161 | -110.67670 | 10518 ft | 332 kts | 260° |
| 2026-05-06 23:17 | 32.34493 | -110.70431 | 10159 ft | 352 kts | 248° |
| 2026-05-06 23:17 | 32.33558 | -110.73051 | 9844 ft | 340 kts | 247° |
| 2026-05-06 23:17 | 32.32631 | -110.75574 | 9465 ft | 330 kts | 247° |
| 2026-05-06 23:17 | 32.31725 | -110.78027 | 9092 ft | 319 kts | 247° |
| 2026-05-06 23:18 | 32.30881 | -110.80317 | 8730 ft | 299 kts | 247° |
| 2026-05-06 23:18 | 32.30056 | -110.82560 | 8366 ft | 296 kts | 247° |
| 2026-05-06 23:18 | 32.29246 | -110.84768 | 8203 ft | 286 kts | 247° |
| 2026-05-06 23:18 | 32.28469 | -110.86882 | 8299 ft | 279 kts | 247° |
| 2026-05-06 23:19 | 32.27908 | -110.89053 | 8281 ft | 277 kts | 266° |
| 2026-05-06 23:19 | 32.28055 | -110.91309 | 8261 ft | 276 kts | 279° |
| 2026-05-06 23:19 | 32.28382 | -110.93542 | 8232 ft | 276 kts | 281° |
| 2026-05-06 23:19 | 32.28755 | -110.95733 | 8206 ft | 275 kts | 288° |
| 2026-05-06 23:20 | 32.29615 | -110.97741 | 8191 ft | 274 kts | 302° |
| 2026-05-06 23:20 | 32.30612 | -110.99642 | 8074 ft | 268 kts | 303° |
| 2026-05-06 23:20 | 32.31578 | -111.01475 | 7939 ft | 258 kts | 303° |
| 2026-05-06 23:20 | 32.32510 | -111.03242 | 7822 ft | 249 kts | 303° |
| 2026-05-06 23:21 | 32.33407 | -111.04945 | 7701 ft | 240 kts | 303° |
| 2026-05-06 23:21 | 32.34283 | -111.06611 | 7528 ft | 239 kts | 303° |
| 2026-05-06 23:21 | 32.35216 | -111.08311 | 6872 ft | 255 kts | 306° |
| 2026-05-06 23:21 | 32.36265 | -111.09990 | 6277 ft | 253 kts | 310° |
| 2026-05-06 23:22 | 32.37339 | -111.11549 | 5701 ft | 237 kts | 310° |
| 2026-05-06 23:22 | 32.38319 | -111.13067 | 5115 ft | 227 kts | 307° |
| 2026-05-06 23:22 | 32.39183 | -111.14579 | 4546 ft | 216 kts | 303° |
| 2026-05-06 23:22 | 32.39882 | -111.16038 | 4520 ft | 192 kts | 299° |
| 2026-05-06 23:23 | 32.40410 | -111.17350 | 4683 ft | 162 kts | 297° |
| 2026-05-06 23:23 | 32.40825 | -111.18502 | 4662 ft | 144 kts | 298° |
| 2026-05-06 23:23 | 32.41280 | -111.19508 | 4545 ft | 134 kts | 305° |
| 2026-05-06 23:23 | 32.41758 | -111.20427 | 4421 ft | 131 kts | 305° |
| 2026-05-06 23:24 | 32.42245 | -111.21350 | 4430 ft | 138 kts | 307° |
| 2026-05-06 23:24 | 32.42782 | -111.22336 | 4472 ft | 145 kts | 307° |
| 2026-05-06 23:24 | 32.43372 | -111.23317 | 4477 ft | 145 kts | 310° |
| 2026-05-06 23:24 | 32.44023 | -111.24241 | 4302 ft | 145 kts | 315° |
| 2026-05-06 23:25 | 32.44726 | -111.25107 | 4118 ft | 146 kts | 317° |
| 2026-05-06 23:25 | 32.45432 | -111.25960 | 3955 ft | 145 kts | 317° |
| 2026-05-06 23:25 | 32.46170 | -111.26805 | 3759 ft | 152 kts | 318° |
| 2026-05-06 23:25 | 32.46908 | -111.27700 | 3617 ft | 153 kts | 316° |
| 2026-05-06 23:26 | 32.47650 | -111.28581 | 3309 ft | 153 kts | 317° |
| 2026-05-06 23:26 | 32.48384 | -111.29478 | 2941 ft | 146 kts | 316° |
| 2026-05-06 23:26 | 32.49064 | -111.30305 | 2570 ft | 134 kts | 316° |
| 2026-05-06 23:26 | 32.49719 | -111.31036 | 2237 ft | 124 kts | 311° |
| 2026-05-06 23:27 | 32.50320 | -111.31752 | 1967 ft | 122 kts | 312° |
| 2026-05-06 23:27 | 32.50844 | -111.32383 | 1889 ft | 76 kts | 316° |
| 2026-05-06 23:27 | 32.51107 | -111.32685 | 1889 ft | 42 kts | 315° |
| 2026-05-06 23:27 | 32.51270 | -111.32875 | 1890 ft | 20 kts | 315° |
| 2026-05-06 23:28 | 32.51333 | -111.32913 | 1882 ft | 11 kts | 24° |
| 2026-05-06 23:28 | 32.51399 | -111.32838 | 1882 ft | 10 kts | 45° |
| 2026-05-06 23:28 | 32.51380 | -111.32764 | 1890 ft | 15 kts | 134° |
| 2026-05-06 23:28 | 32.51279 | -111.32643 | 1891 ft | 24 kts | 134° |
| 2026-05-06 23:29 | 32.51152 | -111.32492 | 1887 ft | 28 kts | 135° |
| 2026-05-06 23:29 | 32.51007 | -111.32317 | 1895 ft | 32 kts | 135° |
| 2026-05-06 23:29 | 32.50843 | -111.32122 | 1888 ft | 35 kts | 134° |
| 2026-05-06 23:29 | 32.50685 | -111.31932 | 1899 ft | 28 kts | 134° |
| 2026-05-06 23:30 | 32.50650 | -111.31823 | 1896 ft | 11 kts | 53° |
| 2026-05-06 23:30 | 32.50685 | -111.31816 | 1900 ft | 0 kts | 311° |